Estación de Río Negro

Ultimos registro cada 15 minutos 55
Estación Fecha / Hora Temperatura Humedad Lluvia Velocidad Dirección Radiación Presion
55 Río Negro 04-05-2026 13:30 12,2 98,6 0 0 354 214,4 1002,5
54 Río Negro 04-05-2026 13:15 12,1 98,6 0 0 334 101,9 1002,9
53 Río Negro 04-05-2026 13:00 11,9 98,9 0 0 345 106,9 1003
52 Río Negro 04-05-2026 12:45 11,7 99,2 0 0 340 123,1 1003,2
51 Río Negro 04-05-2026 12:30 11,7 99,4 0 0 348 108,1 1003,4
50 Río Negro 04-05-2026 12:15 11,3 99,5 0,2 0 347 103,1 1003,4
49 Río Negro 04-05-2026 12:00 11,1 99,3 0 0 348 59,4 1003,7
48 Río Negro 04-05-2026 11:45 11,1 99,1 0 0 350 75,6 1003,7
47 Río Negro 04-05-2026 11:30 11,2 99,2 0 0 352 68,1 1003,4
46 Río Negro 04-05-2026 11:15 11,1 99,2 0 0 357 105,6 1003,3
45 Río Negro 04-05-2026 11:00 11 99,4 0 0 345 83,1 1003,2
44 Río Negro 04-05-2026 10:45 10,8 99,7 0 0 329 103,1 1003,4
43 Río Negro 04-05-2026 10:30 10,5 99,8 0 0 327 49,4 1003,6
42 Río Negro 04-05-2026 10:15 10,4 99,9 0 0 316 45,6 1003,7
41 Río Negro 04-05-2026 10:00 10,4 100 0,2 0 355 58,1 1003,7
40 Río Negro 04-05-2026 09:45 10,5 100 0,4 0 345 78,1 1004
39 Río Negro 04-05-2026 09:30 10,2 100 0 0 331 53,1 1003,9
38 Río Negro 04-05-2026 09:15 10 100 0 0 305 31,9 1003,9
37 Río Negro 04-05-2026 09:00 9,9 100 0,2 0 317 23,1 1004,1
36 Río Negro 04-05-2026 08:45 9,8 100 0,2 0 312 14,4 1004
35 Río Negro 04-05-2026 08:30 9,7 100 0 0 348 13,1 1003,9
34 Río Negro 04-05-2026 08:15 9,6 100 0 0 312 6,9 1003,7
33 Río Negro 04-05-2026 08:00 9,6 100 0 0 330 4,4 1003,5
32 Río Negro 04-05-2026 07:45 9,6 100 0 0 307 0,6 1003,6
31 Río Negro 04-05-2026 07:30 9,5 100 0 0 312 0,6 1003,5
30 Río Negro 04-05-2026 07:15 9,5 100 0 0 310 0,6 1003,5
29 Río Negro 04-05-2026 07:00 9,5 100 0 0 319 0,6 1003,5
28 Río Negro 04-05-2026 06:45 9,5 100 0 0 327 0,6 1004
27 Río Negro 04-05-2026 06:30 9,4 100 0 0 317 0,6 1003,7
26 Río Negro 04-05-2026 06:15 9,4 100 0 0 326 0,6 1003,5
25 Río Negro 04-05-2026 06:00 9,5 100 0 0 100 0,6 1003,7
24 Río Negro 04-05-2026 05:45 9,5 100 0 0 229 0,6 1004,1
23 Río Negro 04-05-2026 05:30 9,5 100 0 0 340 0,6 1004,1
22 Río Negro 04-05-2026 05:15 9,5 100 0,2 0 337 0,6 1004
21 Río Negro 04-05-2026 05:00 9,4 100 0 0 327 0,6 1004,3
20 Río Negro 04-05-2026 04:45 9,4 100 0 0 307 0,6 1004,4
19 Río Negro 04-05-2026 04:30 9,4 100 0 0 319 0,6 1004,3
18 Río Negro 04-05-2026 04:15 9,3 100 0 0 288 0,6 1004,4
17 Río Negro 04-05-2026 04:00 9,2 100 0 0 305 0,6 1004,4
16 Río Negro 04-05-2026 03:45 9,3 100 0 0 305 0,6 1004,7
15 Río Negro 04-05-2026 03:30 9,3 100 0 0 306 0,6 1004,8
14 Río Negro 04-05-2026 03:15 9,2 100 0 0 309 0,6 1004,6
13 Río Negro 04-05-2026 03:00 9,4 100 0 0 321 0,6 1004,9
12 Río Negro 04-05-2026 02:45 9,3 100 0 0 292 0,6 1005
11 Río Negro 04-05-2026 02:30 9,2 100 0 0 306 0,6 1005
10 Río Negro 04-05-2026 02:15 9,3 100 0 0 321 0,6 1004,9
9 Río Negro 04-05-2026 02:00 9,3 100 0 0 338 0,6 1005,2
8 Río Negro 04-05-2026 01:45 9,3 100 0 0 329 0,6 1005,5
7 Río Negro 04-05-2026 01:30 9,3 99,9 0 0 307 0,6 1005,8
6 Río Negro 04-05-2026 01:15 9,4 99,8 0 0 271 0,6 1005,7
5 Río Negro 04-05-2026 01:00 9,4 99,6 0 0 247 0,6 1005,9
4 Río Negro 04-05-2026 00:45 9,5 99,4 0 0 236 0,6 1005,7
3 Río Negro 04-05-2026 00:30 9,5 99,2 0 0 84 0,6 1005,9
2 Río Negro 04-05-2026 00:15 9,7 98,9 0,8 0 0 0,6 1006,1
1 Río Negro 04-05-2026 00:00 9,6 98,4 0 0 344 0,6 1006,4